createdAt,value
2023-04-18T00:00:36.765Z,102006.13
2023-04-18T00:05:41.570Z,102004.75
2023-04-18T00:10:45.001Z,102011.59
2023-04-18T00:15:48.700Z,102012.22
2023-04-18T00:20:53.573Z,102016.25
2023-04-18T00:25:57.047Z,102012.13
2023-04-18T00:31:00.624Z,102006.13
2023-04-18T00:36:06.596Z,102008.00
2023-04-18T00:41:10.868Z,102011.75
2023-04-18T00:46:14.969Z,102010.75
2023-04-18T00:51:20.099Z,102010.72
2023-04-18T00:56:25.819Z,102006.72
2023-04-18T01:01:29.378Z,102009.13
2023-04-18T01:06:34.608Z,102005.03
2023-04-18T01:11:38.029Z,102007.78
2023-04-18T01:16:41.743Z,102008.63
2023-04-18T01:21:47.298Z,102004.91
2023-04-18T01:26:52.249Z,102011.75
2023-04-18T01:31:55.741Z,102002.34
2023-04-18T01:36:59.139Z,102005.06
2023-04-18T01:42:04.094Z,101993.81
2023-04-18T01:47:07.521Z,101999.06
2023-04-18T01:52:14.092Z,101997.38
2023-04-18T01:57:18.984Z,101994.44
2023-04-18T02:02:22.899Z,101987.88
2023-04-18T02:07:26.432Z,101985.03
2023-04-18T02:12:34.178Z,101987.19
2023-04-18T02:17:37.929Z,101995.13
2023-04-18T02:22:41.453Z,101994.97
2023-04-18T02:27:46.326Z,101987.78
2023-04-18T02:32:52.947Z,101991.63
2023-04-18T02:38:00.599Z,101993.09
2023-04-18T02:43:05.728Z,101997.28
2023-04-18T02:48:09.330Z,101995.28
2023-04-18T02:53:12.965Z,101994.69
2023-04-18T02:58:30.465Z,101996.44
2023-04-18T03:03:56.686Z,102005.31
2023-04-18T03:09:13.852Z,102005.72
2023-04-18T03:14:23.610Z,102009.03
2023-04-18T03:19:31.838Z,102010.53
2023-04-18T03:24:41.126Z,102012.94
2023-04-18T03:29:47.561Z,102018.88
2023-04-18T03:34:52.992Z,102016.69
2023-04-18T03:39:57.177Z,102015.28
2023-04-18T03:45:05.699Z,102013.38
2023-04-18T03:50:11.891Z,102028.22
2023-04-18T03:55:17.211Z,102031.19
2023-04-18T04:00:22.135Z,102029.13
2023-04-18T04:05:35.768Z,102030.56
2023-04-18T04:10:39.508Z,102039.13
2023-04-18T04:15:44.653Z,102032.72
2023-04-18T04:20:49.254Z,102032.09
2023-04-18T04:26:06.701Z,102038.19
2023-04-18T04:31:22.199Z,102036.47
2023-04-18T04:36:27.850Z,102033.91
2023-04-18T04:41:37.592Z,102047.38
2023-04-18T04:46:44.849Z,102048.63
2023-04-18T04:51:55.088Z,102050.03
2023-04-18T04:56:58.650Z,102041.06
2023-04-18T05:02:03.997Z,102048.00
2023-04-18T05:07:07.669Z,102063.09
2023-04-18T05:12:11.135Z,102065.06
2023-04-18T05:17:15.930Z,102062.72
2023-04-18T05:22:19.538Z,102071.84
2023-04-18T05:27:23.101Z,102070.75
2023-04-18T05:32:27.983Z,102083.81
2023-04-18T05:37:31.459Z,102084.44
2023-04-18T05:42:34.972Z,102086.78
2023-04-18T05:47:40.225Z,102091.09
2023-04-18T05:52:43.844Z,102092.47
2023-04-18T05:57:47.494Z,102099.41
2023-04-18T06:02:52.469Z,102099.75
2023-04-18T06:07:56.086Z,102108.19
2023-04-18T06:12:59.550Z,102104.88
2023-04-18T06:18:04.359Z,102104.91
2023-04-18T06:23:08.182Z,102115.03
2023-04-18T06:28:11.604Z,102112.59
2023-04-18T06:33:16.480Z,102118.16
2023-04-18T06:38:20.057Z,102130.28
2023-04-18T06:43:23.452Z,102116.38
2023-04-18T06:48:28.714Z,102127.69
2023-04-18T06:53:32.183Z,102133.84
2023-04-18T06:58:35.690Z,102137.63
2023-04-18T07:03:40.657Z,102136.16
2023-04-18T07:08:44.117Z,102145.72
2023-04-18T07:13:48.688Z,102141.63
2023-04-18T07:18:53.573Z,102132.81
2023-04-18T07:23:57.056Z,102136.72
2023-04-18T07:29:00.549Z,102143.59
2023-04-18T07:34:05.711Z,102148.75
2023-04-18T07:39:09.380Z,102139.84
2023-04-18T07:44:13.012Z,102142.19
2023-04-18T07:49:17.948Z,102144.44
2023-04-18T07:54:21.482Z,102153.31
2023-04-18T07:59:24.882Z,102155.38
2023-04-18T08:04:30.620Z,102153.28
2023-04-18T08:09:34.242Z,102160.25
2023-04-18T08:14:37.805Z,102151.53
2023-04-18T08:19:44.360Z,102155.19
2023-04-18T08:25:01.433Z,102153.78
2023-04-18T08:30:08.787Z,102160.19
2023-04-18T08:35:13.653Z,102154.28
2023-04-18T08:40:18.557Z,102139.41
2023-04-18T08:45:22.218Z,102145.19
2023-04-18T08:50:27.125Z,102147.56
2023-04-18T08:55:30.679Z,102145.88
2023-04-18T09:00:35.262Z,102142.13
2023-04-18T09:05:40.195Z,102139.81
2023-04-18T09:10:46.468Z,102141.34
2023-04-18T09:15:56.085Z,102142.28
2023-04-18T09:21:18.510Z,102150.19
2023-04-18T09:26:34.710Z,102146.16
2023-04-18T09:31:55.807Z,102144.44
2023-04-18T09:37:11.324Z,102147.78
2023-04-18T09:42:14.945Z,102139.78
2023-04-18T09:47:18.352Z,102161.78
2023-04-18T09:52:24.762Z,102152.75
2023-04-18T09:57:29.802Z,102154.91
2023-04-18T10:02:42.212Z,102152.06
2023-04-18T10:07:48.482Z,102146.50
2023-04-18T10:12:55.221Z,102155.84
2023-04-18T10:18:05.190Z,102138.56
2023-04-18T10:23:37.791Z,102155.56
2023-04-18T10:28:52.877Z,102152.78
2023-04-18T10:39:22.802Z,102155.63
2023-04-18T10:44:27.469Z,102149.25
2023-04-18T10:49:34.191Z,102143.16
2023-04-18T10:54:40.021Z,102145.44
2023-04-18T10:59:44.379Z,102142.56
2023-04-18T11:04:50.916Z,102139.00
2023-04-18T11:09:56.076Z,102137.44
2023-04-18T11:15:01.389Z,102139.25
2023-04-18T11:20:09.046Z,102134.69
2023-04-18T11:25:14.619Z,102140.25
2023-04-18T11:30:18.520Z,102144.47
2023-04-18T11:35:22.150Z,102134.16
2023-04-18T11:40:27.172Z,102128.72
2023-04-18T11:45:31.198Z,102117.81
2023-04-18T11:50:38.262Z,102127.50
2023-04-18T11:55:43.191Z,102132.41
2023-04-18T12:00:46.623Z,102125.16
2023-04-18T12:05:59.707Z,102124.38
2023-04-18T12:11:04.995Z,102111.53
2023-04-18T12:16:08.917Z,102111.19
2023-04-18T12:21:12.412Z,102113.44
2023-04-18T12:26:18.613Z,102112.25
2023-04-18T12:31:22.569Z,102114.13
2023-04-18T12:36:28.370Z,102117.88
2023-04-18T12:41:33.377Z,102107.38
2023-04-18T12:46:36.947Z,102120.34
2023-04-18T12:51:40.899Z,102104.34
2023-04-18T12:56:46.200Z,102109.06
2023-04-18T13:01:49.674Z,102101.25
2023-04-18T13:06:53.121Z,102101.00
2023-04-18T13:11:58.483Z,102103.22
2023-04-18T13:17:01.990Z,102090.88
2023-04-18T13:22:05.773Z,102108.31
2023-04-18T13:27:11.307Z,102093.66
2023-04-18T13:32:14.753Z,102103.41
2023-04-18T13:37:18.408Z,102085.91
2023-04-18T13:42:23.248Z,102097.28
2023-04-18T13:47:26.917Z,102079.38
2023-04-18T13:52:30.411Z,102087.91
2023-04-18T13:57:37.186Z,102063.72
2023-04-18T14:02:40.896Z,102068.06
2023-04-18T14:07:44.511Z,102063.50
2023-04-18T14:12:49.312Z,102070.19
2023-04-18T14:17:52.788Z,102061.66
2023-04-18T14:22:56.378Z,102061.94
2023-04-18T14:28:09.365Z,102051.88
2023-04-18T14:33:12.864Z,102046.78
2023-04-18T14:38:16.491Z,102044.94
2023-04-18T14:43:21.399Z,102045.09
2023-04-18T14:48:24.891Z,102046.25
2023-04-18T14:53:28.372Z,102033.47
2023-04-18T14:58:33.166Z,102033.31
2023-04-18T15:03:36.687Z,102026.22
2023-04-18T15:08:40.574Z,102022.28
2023-04-18T15:13:47.513Z,102020.41
2023-04-18T15:18:50.988Z,102023.28
2023-04-18T15:23:54.460Z,102011.38
2023-04-18T15:28:59.892Z,102013.94
2023-04-18T15:34:03.761Z,102020.47
2023-04-18T15:39:09.039Z,102032.38
2023-04-18T15:44:14.477Z,102024.28
2023-04-18T15:49:18.017Z,102026.34
2023-04-18T15:54:21.519Z,102036.72
2023-04-18T15:59:26.312Z,102041.34
2023-04-18T16:04:29.875Z,102030.66
2023-04-18T16:09:33.310Z,102035.25
2023-04-18T16:14:38.157Z,102042.56
2023-04-18T16:19:41.650Z,102041.53
2023-04-18T16:24:45.032Z,102044.09
2023-04-18T16:29:49.845Z,102038.81
2023-04-18T16:34:53.234Z,102044.34
2023-04-18T16:39:56.668Z,102044.00
2023-04-18T16:45:02.677Z,102046.94
2023-04-18T16:50:09.123Z,102034.97
2023-04-18T16:55:12.581Z,102046.69
2023-04-18T17:00:17.858Z,102050.38
2023-04-18T17:05:22.986Z,102046.34
2023-04-18T17:10:26.575Z,102050.72
2023-04-18T17:15:31.816Z,102044.66
2023-04-18T17:20:36.007Z,102050.00
2023-04-18T17:25:39.417Z,102056.94
2023-04-18T17:30:44.302Z,102064.00
2023-04-18T17:35:48.144Z,102064.34
2023-04-18T17:40:59.004Z,102064.09
2023-04-18T17:46:04.082Z,102063.47
2023-04-18T17:51:07.763Z,102066.38
2023-04-18T17:56:11.268Z,102072.19
2023-04-18T18:01:16.673Z,102077.16
2023-04-18T18:06:20.550Z,102074.13
2023-04-18T18:11:24.330Z,102078.28
2023-04-18T18:16:29.442Z,102086.91
2023-04-18T18:21:32.936Z,102074.28
2023-04-18T18:26:36.911Z,102075.81
2023-04-18T18:31:42.583Z,102071.72
2023-04-18T18:36:46.173Z,102068.06
2023-04-18T18:41:49.691Z,102085.47
2023-04-18T18:46:54.592Z,102077.31
2023-04-18T18:51:58.074Z,102082.81
2023-04-18T18:57:02.559Z,102081.56
2023-04-18T19:02:07.981Z,102096.16
2023-04-18T19:07:11.446Z,102088.06
2023-04-18T19:12:14.915Z,102099.66
2023-04-18T19:17:21.878Z,102107.41
2023-04-18T19:22:25.511Z,102116.06
2023-04-18T19:27:28.990Z,102110.66
2023-04-18T19:32:33.821Z,102113.00
2023-04-18T19:37:37.227Z,102114.88
2023-04-18T19:42:40.869Z,102114.69
2023-04-18T19:47:47.569Z,102123.31
2023-04-18T19:52:54.598Z,102115.59
2023-04-18T19:57:58.024Z,102123.44
2023-04-18T20:03:02.991Z,102120.34
2023-04-18T20:08:07.165Z,102124.84
2023-04-18T20:13:10.596Z,102125.16
2023-04-18T20:18:15.408Z,102125.03
2023-04-18T20:23:19.068Z,102139.34
2023-04-18T20:28:22.477Z,102132.06
2023-04-18T20:33:27.305Z,102136.34
2023-04-18T20:38:30.885Z,102135.50
2023-04-18T20:43:37.492Z,102135.22
2023-04-18T20:48:43.855Z,102130.50
2023-04-18T20:53:47.272Z,102135.41
2023-04-18T20:58:50.682Z,102137.44
2023-04-18T21:03:55.653Z,102140.97
2023-04-18T21:08:59.270Z,102138.47
2023-04-18T21:14:03.771Z,102147.88
2023-04-18T21:19:08.717Z,102135.84
2023-04-18T21:24:12.317Z,102152.28
2023-04-18T21:29:15.896Z,102148.53
2023-04-18T21:34:20.823Z,102153.19
2023-04-18T21:39:24.319Z,102141.28
2023-04-18T21:44:27.697Z,102129.38
2023-04-18T21:49:32.867Z,102135.66
2023-04-18T21:54:36.305Z,102138.03
2023-04-18T21:59:39.703Z,102132.97
2023-04-18T22:04:44.464Z,102128.03
2023-04-18T22:09:47.979Z,102134.38
2023-04-18T22:14:52.722Z,102126.50
2023-04-18T22:19:57.682Z,102132.81
2023-04-18T22:25:01.104Z,102129.31
2023-04-18T22:30:05.229Z,102125.22
2023-04-18T22:35:10.902Z,102130.09
2023-04-18T22:40:15.620Z,102141.63
2023-04-18T22:45:19.358Z,102137.31
2023-04-18T22:50:24.077Z,102136.69
2023-04-18T22:55:27.464Z,102151.63
2023-04-18T23:00:30.848Z,102151.59
2023-04-18T23:05:35.564Z,102154.19
2023-04-18T23:10:38.980Z,102146.84
2023-04-18T23:15:42.558Z,102147.66
2023-04-18T23:20:47.601Z,102150.47
2023-04-18T23:25:51.005Z,102146.50
2023-04-18T23:30:54.404Z,102142.72
2023-04-18T23:35:59.205Z,102139.75
2023-04-18T23:41:02.560Z,102135.53
2023-04-18T23:46:06.203Z,102128.06
2023-04-18T23:51:11.143Z,102117.41
2023-04-18T23:56:14.540Z,102122.53
